Latest Weather Observations for Oodnadatta

IDS60801

Issued at 3:05 pm CDT Sunday 23 November 2014 (issued every 30 minutes, with the page automatically refreshed every 10 minutes)

About weather observations | Map of weather stations | Latest weather observations for SA | Other Formats
Station Details ID: 017043 Name: OODNADATTA AIRPORT Lat: -27.56 Lon: 135.45 Height: 116.5 m
Data from the previous 72 hours. | See also: Recent months at Oodnadatta
Date/Time
CDT
Temp
°C
App
Temp
°C
Dew
Point
Rel
Hum
%
Delta-T
°C
Wind Press
QNH
hPa
Press
MSL
hPa
Rain
since 9 am
mm
Dir
 
Spd
km/h
Gust
km/h
Spd
kts
Gust
kts
23/03:00pm 38.9 35.5 12.6 21 16.2 SE 22 28 12 15 1006.4 1005.8 0.0
23/02:30pm 37.2 34.6 11.9 22 15.3 S 17 20 9 11 1006.8 - 0.0
23/02:00pm 38.0 36.5 11.9 21 15.8 ESE 11 19 6 10 1007.1 - 0.0
23/01:30pm 38.3 37.4 11.4 20 16.2 W 7 15 4 8 1007.3 - 0.0
23/01:00pm 38.6 39.0 12.4 21 16.0 WNW 2 19 1 10 1007.6 - 0.0
23/12:30pm 38.4 35.9 12.2 21 15.9 WSW 17 32 9 17 1007.8 - 0.0
23/12:00pm 37.6 34.3 11.5 21 15.7 WNW 20 30 11 16 1008.1 1007.5 0.0
23/11:30am 37.0 35.3 12.4 23 14.9 WNW 13 22 7 12 1008.4 - 0.0
23/11:00am 36.5 34.9 12.7 24 14.5 WNW 13 24 7 13 1008.6 - 0.0
23/10:30am 36.2 32.2 13.0 24 14.2 WNW 26 33 14 18 1008.6 - 0.0
23/10:00am 36.2 33.0 13.0 24 14.2 WNW 22 32 12 17 1008.8 - 0.0
23/09:30am 34.4 31.6 14.3 30 12.4 NNW 22 30 12 16 1008.8 - 0.0
23/09:00am 32.1 32.5 16.4 39 9.9 SE 9 13 5 7 1008.1 1007.5 3.2
23/08:30am 30.4 31.9 18.8 50 7.5 SSE 9 11 5 6 1008.3 - 3.2
23/08:00am 28.5 31.5 20.0 60 5.6 SSE 4 9 2 5 1008.2 - 3.2
23/07:30am 28.0 31.0 19.2 58 5.7 NNE 2 7 1 4 1008.0 - 3.2
23/07:00am 28.0 29.6 19.2 58 5.7 N 9 13 5 7 1007.3 - 3.0
23/06:30am 27.3 27.7 19.1 61 5.3 NE 15 17 8 9 1007.3 - 3.0
23/06:00am 27.0 29.5 21.1 70 3.9 ENE 9 13 5 7 1006.9 1006.3 3.0
23/05:30am 27.9 31.0 21.0 66 4.6 NNE 6 11 3 6 1006.3 - 3.0
23/05:00am 28.7 30.0 19.3 56 6.1 N 11 13 6 7 1006.0 - 3.0
23/04:30am 29.8 31.4 18.3 50 7.4 N 7 13 4 7 1006.0 - 3.0
23/04:00am 32.1 32.7 14.3 34 10.9 SSW 4 11 2 6 1006.3 - 3.0
23/03:30am 31.4 30.2 15.0 37 10.1 SW 15 19 8 10 1005.6 - 3.0
23/03:00am 32.0 28.8 14.2 34 10.9 SSW 24 30 13 16 1005.5 1004.9 3.0
23/02:30am 30.9 29.5 16.9 43 8.9 SSW 20 26 11 14 1005.4 - 3.0
23/02:00am 30.7 31.4 19.7 52 7.2 SSW 15 19 8 10 1005.9 - 3.0
23/01:30am 29.8 31.9 20.9 59 5.9 ESE 11 24 6 13 1007.0 - 3.0
23/01:00am 29.9 31.8 21.3 60 5.8 SSE 13 17 7 9 1006.8 - 3.0
23/12:30am 30.3 29.5 18.4 49 7.7 ESE 20 26 11 14 1007.0 - 3.0
23/12:26am 29.6 29.1 19.0 53 6.9 E 20 24 11 13 1007.1 - 3.0
23/12:00am 34.7 34.6 16.1 33 11.8 ESE 11 17 6 9 1007.1 1006.5 0.0
 
Date/Time
CDT
Temp
°C
App
Temp
°C
Dew
Point
Rel
Hum
%
Delta-T
°C
Wind Press
QNH
hPa
Press
MSL
hPa
Rain
since 9 am
mm
Dir
 
Spd
km/h
Gust
km/h
Spd
kts
Gust
kts
22/11:30pm 37.2 35.3 10.5 20 15.8 SW 11 19 6 10 1006.8 - 0.0
22/11:00pm 36.9 31.5 11.0 21 15.4 NNE 30 37 16 20 1005.7 - 0.0
22/10:30pm 37.1 31.8 11.1 21 15.5 NNE 30 41 16 22 1004.8 - 0.0
22/10:00pm 38.2 32.9 9.7 18 16.7 NNE 28 43 15 23 1004.4 - 0.0
22/09:59pm 38.3 33.0 9.8 18 16.7 NNE 28 43 15 23 1004.4 - 0.0
22/09:30pm 39.4 35.1 7.0 14 18.3 NE 19 22 10 12 1004.1 - 0.0
22/09:00pm 40.4 36.5 5.5 12 19.5 N 15 24 8 13 1003.8 1003.2 0.0
22/08:42pm 39.9 33.8 8.4 15 18.2 NW 30 37 16 20 1003.8 - 0.0
22/08:30pm 40.6 36.9 4.4 11 19.8 N 13 17 7 9 1003.5 - 0.0
22/08:00pm 41.0 37.7 4.7 11 20.0 N 11 15 6 8 1003.2 - 0.0
22/07:30pm 41.9 39.2 5.4 11 20.4 N 9 11 5 6 1002.9 - 0.0
22/07:00pm 42.5 38.8 4.5 10 21.1 N 13 22 7 12 1002.8 - 0.0
22/06:30pm 43.5 39.2 5.2 10 21.5 N 17 26 9 14 1002.8 - 0.0
22/06:00pm 43.4 39.1 5.2 10 21.5 WNW 17 30 9 16 1002.9 1002.3 0.0
22/05:30pm 43.5 38.2 5.2 10 21.5 N 22 35 12 19 1003.2 - 0.0
22/05:00pm 43.6 38.9 5.3 10 21.6 N 19 28 10 15 1003.4 - 0.0
22/04:44pm 43.7 37.0 5.4 10 21.6 N 30 48 16 26 1003.4 - 0.0
22/04:30pm 43.7 38.1 5.4 10 21.6 N 24 33 13 18 1003.7 - 0.0
22/04:00pm 43.4 38.7 5.2 10 21.5 NNW 19 33 10 18 1004.1 - 0.0
22/03:30pm 42.9 38.1 7.4 12 20.5 NNW 22 43 12 23 1004.4 - 0.0
22/03:10pm 42.8 36.9 7.3 12 20.5 N 28 54 15 29 1004.7 - 0.0
22/03:00pm 43.0 37.1 7.5 12 20.6 N 28 46 15 25 1004.9 1004.3 0.0
22/02:30pm 43.7 37.5 8.0 12 20.9 N 30 43 16 23 1005.2 - 0.0
22/02:24pm 43.7 38.2 9.2 13 20.5 N 28 46 15 25 1005.3 - 0.0
22/02:15pm 42.8 35.1 8.5 13 20.1 WNW 39 50 21 27 1005.3 - 0.0
22/02:00pm 43.3 37.0 8.9 13 20.4 NNW 32 48 17 26 1005.7 - 0.0
22/01:33pm 42.7 36.0 9.5 14 19.8 NNW 35 54 19 29 1006.0 - 0.0
22/01:30pm 42.8 36.5 9.6 14 19.8 NW 33 48 18 26 1006.0 - 0.0
22/01:00pm 41.3 34.2 9.5 15 18.8 NNW 37 56 20 30 1006.5 - 0.0
22/12:32pm 42.0 34.6 10.0 15 19.1 NNW 39 63 21 34 1006.7 - 0.0
22/12:30pm 40.7 33.3 10.0 16 18.3 NNW 39 50 21 27 1006.9 - 0.0
22/12:00pm 41.4 33.2 9.6 15 18.9 NNW 43 59 23 32 1007.0 1006.4 0.0
22/11:49am 40.1 32.2 9.5 16 18.0 NNW 41 61 22 33 1007.2 - 0.0
22/11:30am 41.5 33.3 9.6 15 18.9 N 43 57 23 31 1007.2 - 0.0
22/11:14am 41.1 33.2 9.3 15 18.8 NNW 41 59 22 32 1007.3 - 0.0
22/11:00am 40.7 32.6 10.0 16 18.3 NNW 43 54 23 29 1007.5 - 0.0
22/10:30am 39.8 30.6 11.0 18 17.3 NNW 50 61 27 33 1007.7 - 0.0
22/10:00am 38.7 30.6 10.1 18 16.9 NNW 43 56 23 30 1007.8 - 0.0
22/09:44am 38.0 30.4 10.4 19 16.3 NNW 41 61 22 33 1007.7 - 0.0
22/09:30am 37.1 30.4 11.1 21 15.5 NNW 37 44 20 24 1007.8 - 0.0
22/09:00am 35.2 29.6 11.6 24 14.1 NNW 32 39 17 21 1007.5 1006.9 0.0
22/08:30am 33.7 28.3 12.1 27 12.9 NNW 32 39 17 21 1007.3 - 0.0
22/08:00am 32.7 28.7 11.8 28 12.4 NW 24 33 13 18 1007.2 - 0.0
22/07:30am 31.0 28.2 11.4 30 11.4 NNW 17 20 9 11 1006.9 - 0.0
22/07:00am 30.8 27.6 11.2 30 11.4 NW 19 22 10 12 1006.4 - 0.0
22/06:30am 30.0 26.8 10.0 29 11.4 NNW 17 20 9 11 1006.2 - 0.0
22/06:00am 30.3 27.1 9.8 28 11.7 NNW 17 19 9 10 1005.6 1005.0 0.0
22/05:30am 30.8 27.9 9.6 27 12.0 NNW 15 19 8 10 1005.1 - 0.0
22/05:00am 31.2 28.5 8.8 25 12.6 N 13 15 7 8 1005.0 - 0.0
22/04:30am 31.2 28.2 7.6 23 13.0 N 13 17 7 9 1004.8 - 0.0
22/04:00am 31.3 28.2 7.1 22 13.2 NNW 13 15 7 8 1004.9 - 0.0
22/03:30am 33.1 29.0 7.9 21 14.0 N 19 22 10 12 1004.7 - 0.0
22/03:00am 33.2 28.6 6.5 19 14.6 NNE 20 24 11 13 1004.8 1004.2 0.0
22/02:30am 33.2 27.9 4.9 17 15.0 NNE 22 30 12 16 1004.9 - 0.0
22/02:00am 32.9 27.9 4.6 17 14.9 NNE 20 26 11 14 1005.3 - 0.0
22/01:30am 33.4 27.7 5.0 17 15.1 N 24 32 13 17 1006.1 - 0.0
22/01:00am 34.2 29.1 3.9 15 15.9 N 20 28 11 15 1006.1 - 0.0
22/12:30am 34.1 29.7 4.7 16 15.7 NNE 17 20 9 11 1005.7 - 0.0
22/12:00am 34.7 30.0 6.1 17 15.7 NE 20 24 11 13 1006.0 1005.4 0.0
 
Date/Time
CDT
Temp
°C
App
Temp
°C
Dew
Point
Rel
Hum
%
Delta-T
°C
Wind Press
QNH
hPa
Press
MSL
hPa
Rain
since 9 am
mm
Dir
 
Spd
km/h
Gust
km/h
Spd
kts
Gust
kts
21/11:30pm 34.9 30.4 7.1 18 15.4 NE 20 24 11 13 1006.0 - 0.0
21/11:00pm 34.8 30.9 7.0 18 15.4 ENE 17 20 9 11 1006.0 - 0.0
21/10:30pm 35.4 31.6 7.5 18 15.6 ENE 17 19 9 10 1006.1 - 0.0
21/10:00pm 35.8 32.4 7.8 18 15.8 ENE 15 17 8 9 1006.1 - 0.0
21/09:30pm 36.8 33.3 8.6 18 16.2 ENE 17 19 9 10 1005.9 - 0.0
21/09:00pm 37.5 34.5 9.2 18 16.5 ENE 15 17 8 9 1005.7 1005.1 0.0
21/08:30pm 38.3 34.9 9.0 17 17.0 ENE 17 19 9 10 1005.6 - 0.0
21/08:00pm 39.0 36.1 9.5 17 17.3 NE 15 17 8 9 1005.5 - 0.0
21/07:30pm 39.5 37.6 9.0 16 17.8 N 9 19 5 10 1005.4 - 0.0
21/07:00pm 40.2 37.7 9.6 16 18.1 NE 13 19 7 10 1005.2 - 0.0
21/06:30pm 39.7 37.1 9.2 16 17.9 NNW 13 24 7 13 1005.2 - 0.0
21/06:00pm 39.4 36.3 8.9 16 17.8 NNW 15 24 8 13 1005.4 1004.8 0.0
21/05:30pm 40.0 37.0 9.4 16 18.0 N 15 24 8 13 1005.6 - 0.0
21/05:00pm 39.6 36.8 10.0 17 17.5 NNW 15 28 8 15 1006.0 - 0.0
21/04:30pm 39.6 37.2 10.0 17 17.5 NNE 13 28 7 15 1006.4 - 0.0
21/04:00pm 39.1 35.5 10.4 18 17.1 NE 20 32 11 17 1006.9 - 0.0
21/03:30pm 38.6 36.1 10.9 19 16.5 N 15 28 8 15 1007.3 - 0.0
21/03:00pm 39.2 35.8 11.3 19 16.8 N 20 39 11 21 1007.9 1007.3 0.0
21/02:30pm 37.6 35.0 10.8 20 15.9 N 15 33 8 18 1008.4 - 0.0
21/02:00pm 37.2 34.4 11.2 21 15.5 NNE 17 30 9 16 1009.1 - 0.0
21/01:30pm 37.0 35.3 12.4 23 14.9 E 13 20 7 11 1009.7 - 0.0
21/01:00pm 35.9 33.7 12.2 24 14.3 ENE 15 24 8 13 1010.2 - 0.0
21/12:30pm 34.2 31.4 12.5 27 13.0 E 19 28 10 15 1010.7 - 0.0
21/12:00pm 33.6 31.0 13.1 29 12.4 E 19 30 10 16 1011.2 1010.6 0.0
21/11:30am 33.1 30.5 13.7 31 11.8 E 20 35 11 19 1011.6 - 0.0
21/11:00am 31.6 28.1 13.4 33 11.0 ESE 24 32 13 17 1012.0 - 0.0
21/10:30am 30.3 25.6 13.1 34 10.3 ESE 30 39 16 21 1012.2 - 0.0
21/10:00am 30.3 26.6 14.0 37 9.9 ESE 26 35 14 19 1012.5 - 0.0
21/09:30am 28.5 24.3 13.6 40 8.9 ESE 28 35 15 19 1012.6 - 0.0
21/09:00am 27.5 23.0 13.8 43 8.2 ESE 30 37 16 20 1012.7 1012.1 0.0
21/08:30am 26.4 21.8 13.5 45 7.6 SE 30 35 16 19 1012.6 - 0.0
21/08:00am 25.5 20.4 13.7 48 7.0 SE 33 39 18 21 1012.2 - 0.0
21/07:30am 25.3 20.7 13.5 48 6.9 SE 30 37 16 20 1011.9 - 0.0
21/07:00am 25.0 21.5 13.5 48 6.8 SE 24 30 13 16 1011.4 - 0.0
21/06:30am 24.9 22.8 13.5 49 6.7 SSE 17 20 9 11 1011.0 - 0.0
21/06:00am 25.4 22.8 13.3 47 7.1 SSE 19 20 10 11 1010.4 1009.9 0.0
21/05:30am 25.4 22.8 13.3 47 7.1 SSE 19 20 10 11 1009.9 - 0.0
21/05:00am 25.1 24.0 13.0 47 7.1 SSE 11 13 6 7 1009.8 - 0.0
21/04:30am 26.2 24.8 13.3 45 7.6 SSE 13 15 7 8 1009.5 - 0.0
21/04:00am 26.9 24.8 13.6 44 7.9 SSE 17 20 9 11 1009.2 - 0.0
21/03:30am 27.4 25.0 13.7 43 8.2 SSE 19 20 10 11 1009.2 - 0.0
21/03:00am 27.8 25.4 13.7 42 8.4 SSE 19 20 10 11 1009.1 1008.5 0.0
21/02:30am 28.0 26.0 13.9 42 8.4 SE 17 20 9 11 1009.4 - 0.0
21/02:00am 28.0 26.0 13.9 42 8.4 SE 17 20 9 11 1009.5 - 0.0
21/01:30am 28.3 27.0 13.8 41 8.7 SE 13 17 7 9 1010.2 - 0.0
21/01:00am 28.8 27.6 13.9 40 9.0 SE 13 17 7 9 1010.6 - 0.0
21/12:30am 29.5 27.6 14.1 39 9.3 SSE 17 20 9 11 1010.6 - 0.0
21/12:00am 30.1 27.6 14.2 38 9.7 SSE 20 28 11 15 1010.9 1010.3 0.0
 
Date/Time
CDT
Temp
°C
App
Temp
°C
Dew
Point
Rel
Hum
%
Delta-T
°C
Wind Press
QNH
hPa
Press
MSL
hPa
Rain
since 9 am
mm
Dir
 
Spd
km/h
Gust
km/h
Spd
kts
Gust
kts
20/11:30pm 30.7 27.9 14.3 36 10.0 SSE 22 26 12 14 1011.1 - 0.0
20/11:00pm 30.7 31.3 15.9 40 9.2 SSE 7 11 4 6 1010.9 - 0.0
20/10:30pm 30.6 30.2 16.2 41 9.0 S 13 19 7 10 1010.4 - 0.0
20/10:00pm 30.7 28.6 16.3 42 9.0 SSW 22 28 12 15 1010.0 - 0.0
20/09:30pm 31.4 28.2 16.2 40 9.6 SSW 28 35 15 19 1009.7 - 0.0
20/09:00pm 33.6 31.1 14.1 30 12.0 S 20 24 11 13 1009.3 1008.7 0.0
20/08:30pm 33.9 33.1 11.1 25 13.4 NNW 6 7 3 4 1008.9 - 0.0
20/08:00pm 34.4 32.8 11.5 25 13.6 NNW 11 15 6 8 1008.4 - 0.0
20/07:30pm 34.7 33.0 11.2 24 13.9 NNW 11 15 6 8 1008.4 - 0.0
20/07:00pm 35.2 34.4 10.9 23 14.3 NNW 6 13 3 7 1007.9 - 0.0
20/06:30pm 36.0 33.8 10.9 22 14.8 W 13 19 7 10 1007.6 - 0.0
20/06:00pm 36.0 34.2 10.9 22 14.9 WNW 11 20 6 11 1007.7 1007.1 0.0
20/05:30pm 35.4 32.2 11.1 23 14.4 NNW 19 26 10 14 1007.8 - 0.0
20/05:00pm 35.2 33.8 10.9 23 14.3 NW 9 17 5 9 1007.9 - 0.0
20/04:30pm 34.3 32.1 10.8 24 13.8 WNW 13 20 7 11 1007.9 - 0.0
20/04:00pm 35.5 33.8 9.8 21 14.9 NW 9 19 5 10 1008.6 - 0.0
20/03:30pm 34.0 32.7 9.9 23 13.9 SSW 7 13 4 7 1009.1 - 0.0

Other Formats:

Comma delimited format used in spreadsheet applications
http://www.bom.gov.au/fwo/IDS60801/IDS60801.94476.axf

JavaScript Object Notation format (JSON) in row-major order
http://www.bom.gov.au/fwo/IDS60801/IDS60801.94476.json